Latest Coastal Weather Observations for Lombadina

IDW60701

Issued at 1:15 am WST Wednesday 3 September 2014 (issued every 10 minutes, with the page automatically refreshed every 10 minutes)

About coastal observations | Map of coastal stations | Coastal observations for WA | Marine services | Other Formats
Station Details ID: 503016 Name: LOMBADINA AIRSTRIP Lat: -16.52 Lon: 122.92 Height: 42.0 m
Data from the previous 72 hours. | See also: Recent months for locations in Western Australia
Date/Time
WST
Temp

°C
Wind Pressure Rain
since 9am
mm
Weather Cloud Vis
km
Sea
Height
m
Swell
Dir
 
Speed
knots
Gust
knots
hPa Trend Height
m
Period
s
Dir
03/01:00am 17.1 W 2 3 1015.1 - 0.0 - - 10 - - - -
03/12:30am 18.1 WSW 3 4 1015.2 - 0.0 - - 10 - - - -
03/12:00am 18.0 WSW 3 4 1015.2 - 0.0 - - 10 - - - -
 
Date/Time
WST
Temp

°C
Wind Pressure Rain
since 9am
mm
Weather Cloud Vis
km
Sea
Height
m
Swell
Dir
 
Speed
knots
Gust
knots
hPa Trend Height
m
Period
s
Dir
02/11:30pm 19.2 WSW 3 4 1015.1 - 0.0 - - 10 - - - -
02/11:00pm 19.9 WSW 3 5 1015.1 - 0.0 - - 10 - - - -
02/10:30pm 20.0 WSW 3 5 1015.0 - 0.0 - - 10 - - - -
02/10:00pm 20.3 WSW 4 7 1014.8 - 0.0 - - 10 - - - -
02/09:30pm 20.6 WSW 4 8 1014.7 - 0.0 - - 10 - - - -
02/09:00pm 20.4 WSW 4 7 1014.7 - 0.0 - - 10 - - - -
02/08:30pm 20.5 SW 5 8 1014.6 - 0.0 - - 10 - - - -
02/08:00pm 20.5 SW 4 6 1014.3 - 0.0 - - 10 - - - -
02/07:30pm 21.0 SW 4 6 1014.1 - 0.0 - - 10 - - - -
02/07:00pm 20.3 WSW 3 4 1013.8 - 0.0 - - 10 - - - -
02/06:30pm 22.0 W 2 4 1013.4 - 0.0 - - 10 - - - -
02/06:00pm 22.6 W 2 3 1013.1 - 0.0 - - 10 - - - -
02/05:30pm 24.7 W 2 3 1013.0 - 0.0 - - 10 - - - -
02/05:00pm 26.8 WNW 4 5 1012.9 - 0.0 - - 10 - - - -
02/04:30pm 27.5 WNW 4 6 1013.0 - 0.0 - - 10 - - - -
02/04:00pm 28.3 WNW 4 7 1013.0 - 0.0 - - 10 - - - -
02/03:30pm 28.7 WNW 5 8 1012.9 - 0.0 - - 10 - - - -
02/03:00pm 29.9 NW 6 9 1012.9 - 0.0 - - 10 - - - -
02/02:30pm 29.6 NW 6 8 1012.9 - 0.0 - - 10 - - - -
02/02:00pm 29.9 WNW 5 8 1013.2 - 0.0 - - 10 - - - -
02/01:30pm 30.3 NNW 6 8 1013.7 - 0.0 - - 10 - - - -
02/01:00pm 30.2 NW 6 9 1014.1 - 0.0 - - 10 - - - -
02/12:30pm 32.0 ESE 3 6 1014.4 - 0.0 - - 10 - - - -
02/12:00pm 30.7 ESE 4 9 1014.7 - 0.0 - - 10 - - - -
02/11:30am 30.2 E 6 11 1015.1 - 0.0 - - 10 - - - -
02/11:00am 29.7 E 4 8 1015.5 - 0.0 - - 10 - - - -
02/10:30am 29.0 SE 3 6 1015.9 - 0.0 - - 10 - - - -
02/10:00am 28.3 SE 3 6 1016.3 - 0.0 - - 10 - - - -
02/09:30am 28.2 ESE 3 5 1016.5 - 0.0 - - 10 - - - -
02/09:00am 27.2 S 3 6 1016.5 - 0.2 - - 10 - - - -
02/08:30am 25.8 E 3 5 1016.4 - 0.2 - - 10 - - - -
02/08:00am 24.6 E 3 6 1016.2 - 0.2 - - 10 - - - -
02/07:30am 22.4 ESE 1 3 1016.0 - 0.2 - - 10 - - - -
02/07:00am 19.8 SSE 3 4 1016.0 - 0.2 - - 10 - - - -
02/06:59am 19.8 SSE 3 4 1016.0 - 0.2 - - 10 - - - -
02/06:30am 14.7 ESE 3 5 1015.6 - 0.2 - - 10 - - - -
02/06:00am 13.6 ENE 1 3 1015.3 - 0.2 - - 10 - - - -
02/05:30am 13.5 E 2 4 1015.1 - 0.2 - - 10 - - - -
02/05:00am 13.5 E 1 2 1014.6 - 0.2 - - 10 - - - -
02/04:30am 13.6 E 3 4 1014.4 - 0.2 - - 10 - - - -
02/04:00am 14.7 ENE 1 2 1014.3 - 0.2 - - 10 - - - -
02/03:30am 14.3 NE 1 4 1013.9 - 0.2 - - 10 - - - -
02/03:00am 14.6 NNE 1 2 1013.7 - 0.2 - - 10 - - - -
02/02:30am 16.1 SSW 2 3 1013.5 - 0.2 - - 10 - - - -
02/02:00am 16.1 SSW 3 4 1013.6 - 0.2 - - 10 - - - -
02/01:30am 17.1 SSW 3 5 1013.6 - 0.2 - - 10 - - - -
02/01:00am 16.9 SW 3 5 1013.8 - 0.2 - - 10 - - - -
02/12:30am 17.8 SW 3 5 1014.0 - 0.2 - - 10 - - - -
02/12:00am 18.4 SSW 3 6 1014.3 - 0.2 Rain - 10 - - - -
 
Date/Time
WST
Temp

°C
Wind Pressure Rain
since 9am
mm
Weather Cloud Vis
km
Sea
Height
m
Swell
Dir
 
Speed
knots
Gust
knots
hPa Trend Height
m
Period
s
Dir
01/11:30pm 18.2 SW 4 6 1014.5 - 0.0 - - 10 - - - -
01/11:00pm 19.0 SW 4 6 1014.4 - 0.0 - - 10 - - - -
01/10:30pm 19.2 SW 4 6 1014.4 - 0.0 - - 10 - - - -
01/10:00pm 19.2 SW 4 6 1014.5 - 0.0 - - 10 - - - -
01/09:30pm 18.8 SW 4 7 1014.5 - 0.0 - - 10 - - - -
01/09:00pm 19.1 SW 3 5 1014.7 - 0.0 - - 10 - - - -
01/08:30pm 19.7 WSW 3 6 1014.8 - 0.0 - - 10 - - - -
01/08:00pm 19.9 WSW 3 5 1014.8 - 0.0 - - 10 - - - -
01/07:30pm 20.3 WSW 3 5 1014.7 - 0.0 - - 10 - - - -
01/07:00pm 20.7 WSW 3 6 1014.4 - 0.0 - - 10 - - - -
01/06:30pm 21.6 WSW 4 6 1014.2 - 0.0 - - 10 - - - -
01/06:00pm 22.2 W 3 5 1013.9 - 0.0 - - 10 - - - -
01/05:30pm 23.8 W 3 4 1013.7 - 0.0 - - 10 - - - -
01/05:00pm 26.2 WNW 3 6 1013.5 - 0.0 - - 10 - - - -
01/04:30pm 27.2 NW 4 6 1013.4 - 0.0 - - 10 - - - -
01/04:00pm 28.0 WNW 5 7 1013.3 - 0.0 - - 10 - - - -
01/03:30pm 27.0 WNW 5 7 1013.3 - 0.0 - - 10 - - - -
01/03:00pm 27.8 NW 5 8 1013.2 - 0.0 - - 10 - - - -
01/02:30pm 27.7 NW 6 9 1013.3 - 0.0 - - 10 - - - -
01/02:00pm 27.9 NW 7 10 1013.3 - 0.0 - - 10 - - - -
01/01:30pm 28.1 NW 7 9 1013.7 - 0.0 - - 10 - - - -
01/01:00pm 28.5 NW 6 9 1014.0 - 0.0 - - 10 - - - -
01/12:30pm 28.8 NW 7 10 1014.5 - 0.0 - - 10 - - - -
01/12:00pm 28.8 WNW 6 9 1014.8 - 0.0 - - 10 - - - -
01/11:30am 29.9 ENE 3 6 1015.2 - 0.0 - - 10 - - - -
01/11:00am 29.4 ENE 5 7 1015.6 - 0.0 - - 10 - - - -
01/10:30am 28.5 ESE 2 5 1015.9 - 0.0 - - 10 - - - -
01/10:00am 27.9 E 3 6 1016.3 - 0.0 - - 10 - - - -
01/09:30am 27.5 ENE 4 7 1016.4 - 0.0 - - 10 - - - -
01/09:00am 26.9 ESE 4 6 1016.4 - 0.0 - - 10 - - - -
01/08:30am 25.4 E 4 7 1016.2 - 0.0 - - 10 - - - -
01/08:00am 24.1 E 4 5 1015.8 - 0.0 - - 10 - - - -
01/07:30am 22.9 ESE 1 3 1015.4 - 0.0 - - 10 - - - -
01/07:00am 18.9 ESE 2 4 1015.1 - 0.0 - - 10 - - - -
01/06:30am 15.1 ESE 3 5 1014.9 - 0.0 - - 10 - - - -
01/06:00am 13.6 ESE 2 4 1014.6 - 0.0 - - 10 - - - -
01/05:30am 12.8 ESE 3 5 1014.4 - 0.0 - - 10 - - - -
01/05:00am 13.2 ESE 2 4 1014.1 - 0.0 - - 10 - - - -
01/04:30am 14.1 S 1 3 1013.7 - 0.0 - - 10 - - - -
01/04:00am 15.1 SW 2 4 1013.4 - 0.0 - - 10 - - - -
01/03:30am 15.7 SW 3 4 1013.3 - 0.0 - - 10 - - - -
01/03:00am 16.4 SW 3 5 1013.2 - 0.0 - - 10 - - - -
01/02:30am 17.3 SW 4 6 1013.1 - 0.0 - - 10 - - - -
01/02:24am 17.4 SSW 4 6 1013.1 - 0.0 - - 10 - - - -
01/02:00am 17.1 SW 3 5 1013.1 - 0.0 - - 0.7 - - - -
01/01:53am 17.2 SW 3 5 1013.1 - 0.0 - - 2 - - - -
01/01:40am 17.6 SW 3 5 1013.1 - 0.0 - - 10 - - - -
01/01:30am 17.6 SW 3 5 1013.1 - 0.0 - - 4 - - - -
01/01:23am 17.1 SW 3 4 1013.0 - 0.0 - - 4 - - - -
01/01:00am 17.5 SW 3 4 1013.2 - 0.0 - - 9 - - - -
01/12:30am 17.7 SW 3 5 1013.1 - 0.0 - - 10 - - - -
01/12:00am 18.0 SW 4 6 1013.3 - 0.0 - - 10 - - - -
 
Date/Time
WST
Temp

°C
Wind Pressure Rain
since 9am
mm
Weather Cloud Vis
km
Sea
Height
m
Swell
Dir
 
Speed
knots
Gust
knots
hPa Trend Height
m
Period
s
Dir
31/11:30pm 18.1 SW 4 6 1013.4 - 0.0 - - 10 - - - -
31/11:00pm 18.1 SW 4 6 1013.5 - 0.0 - - 10 - - - -
31/10:30pm 18.3 SW 3 4 1013.5 - 0.0 - - 10 - - - -
31/10:00pm 18.5 SW 3 5 1013.5 - 0.0 - - 10 - - - -
31/09:30pm 18.7 W 2 4 1013.5 - 0.0 - - 10 - - - -
31/09:00pm 17.8 WSW 2 3 1013.5 - 0.0 - - 10 - - - -
31/08:30pm 18.0 WSW 3 4 1013.4 - 0.0 - - 10 - - - -
31/08:00pm 17.9 W 2 4 1013.5 - 0.0 - - 10 - - - -
31/07:30pm 18.9 WNW 2 3 1013.4 - 0.0 - - 10 - - - -
31/07:00pm 20.4 WNW 3 4 1013.2 - 0.0 - - 10 - - - -
31/06:30pm 20.2 W 2 4 1013.1 - 0.0 - - 10 - - - -
31/06:00pm 21.2 W 3 4 1012.9 - 0.0 - - 10 - - - -
31/05:30pm 23.3 W 2 4 1012.8 - 0.0 - - 10 - - - -
31/05:00pm 25.1 WNW 2 4 1012.7 - 0.0 - - 10 - - - -
31/04:30pm 25.8 NW 5 6 1012.6 - 0.0 - - 10 - - - -
31/04:00pm 26.7 NW 5 7 1012.4 - 0.0 - - 10 - - - -
31/03:30pm 28.2 NW 4 6 1012.3 - 0.0 - - 10 - - - -
31/03:00pm 28.5 WNW 5 7 1012.4 - 0.0 - - 10 - - - -
31/02:30pm 28.2 WNW 5 7 1012.5 - 0.0 - - 10 - - - -
31/02:00pm 28.9 WNW 5 7 1012.7 - 0.0 - - 10 - - - -
31/01:30pm 28.6 NNW 6 8 1013.0 - 0.0 - - 10 - - - -
31/01:00pm 28.2 NW 5 9 1013.4 - 0.0 - - 10 - - - -
31/12:30pm 29.4 NW 5 11 1013.9 - 0.0 - - 10 - - - -
31/12:00pm 29.2 SE 4 7 1014.2 - 0.0 - - 10 - - - -
31/11:30am 29.5 E 5 8 1014.5 - 0.0 - - 10 - - - -
31/11:00am 28.1 E 3 6 1014.8 - 0.0 - - 10 - - - -
31/10:30am 27.7 ENE 4 6 1015.3 - 0.0 - - 10 - - - -
31/10:00am 26.5 E 3 7 1015.6 - 0.0 - - 10 - - - -
31/09:30am 26.2 E 4 7 1015.8 - 0.0 - - 10 - - - -
31/09:00am 25.7 E 4 7 1015.7 - 0.0 - - 10 - - - -
31/08:30am 25.1 E 3 5 1015.6 - 0.0 - - 10 - - - -
31/08:00am 23.9 ESE 2 4 1015.5 - 0.0 - - 10 - - - -
31/07:30am 22.8 E 2 3 1015.4 - 0.0 - - 10 - - - -
31/07:00am 17.9 E 2 3 1015.1 - 0.0 - - 10 - - - -
31/06:30am 14.6 E 1 3 1014.9 - 0.0 - - 10 - - - -
31/06:00am 12.7 ENE 2 3 1014.4 - 0.0 - - 10 - - - -
31/05:30am 13.1 NE 3 5 1014.3 - 0.0 - - 10 - - - -
31/05:00am 12.2 ENE 2 4 1013.8 - 0.0 - - 10 - - - -
31/04:30am 12.8 SE 2 4 1013.7 - 0.0 - - 10 - - - -
31/04:00am 13.6 CALM 0 1 1013.6 - 0.0 - - 10 - - - -
31/03:30am 14.5 SW 2 3 1013.5 - 0.0 - - 10 - - - -
31/03:00am 14.5 SW 2 4 1013.4 - 0.0 - - 10 - - - -
31/02:30am 14.8 WSW 2 4 1013.3 - 0.0 - - 10 - - - -
31/02:00am 15.4 SW 2 4 1013.3 - 0.0 - - 10 - - - -
31/01:30am 15.7 SW 3 4 1013.4 - 0.0 - - 10 - - - -

Other Formats:

Comma delimited format used in spreadsheet applications
http://www.bom.gov.au/fwo/IDW60701/IDW60701.99206.axf

JavaScript Object Notation format (JSON) in row-major order
http://www.bom.gov.au/fwo/IDW60701/IDW60701.99206.json